Frio Town, Texas
Current Conditions -  °F | °C
As of 1:53 PM on Thursday 23 Oct 2014 (Local Time) from KCOT Reporting Station
Few Clouds Few Clouds  
Wind Chill: 84°   Ceiling: Unl
Heat Index: 84°   Visibility: 10mi
Dew Point: 59°   Wind: 3mph
Humidity: 43%   Direction: NA
Pressure: 30.09"   Gusts: NA
Location:  28.8736°N, 99.1074°W
Report Text: KCOT 231853Z AUTO VRB03KT 10SM FEW050 29/15 A3009 RMK AO2 SLP181 T02890150
Loading
Personal Weather Stations






























Interactive Weather Map
Tropical Storm Tracking
New forecast layout! Learn more

10-Day Weather Forecast

Advertisements
Track Severe Weather on mobile